createdAt,value
2019-05-10T00:01:36.962Z,40.88
2019-05-10T00:04:23.119Z,42.67
2019-05-10T00:07:09.626Z,40.35
2019-05-10T00:09:37.265Z,41.70
2019-05-10T00:12:07.322Z,41.63
2019-05-10T00:14:37.395Z,45.43
2019-05-10T00:17:07.443Z,41.68
2019-05-10T00:19:35.932Z,45.25
2019-05-10T00:22:04.422Z,40.92
2019-05-10T00:24:33.066Z,44.33
2019-05-10T00:27:01.555Z,44.10
2019-05-10T00:29:30.031Z,42.00
2019-05-10T00:31:58.533Z,43.87
2019-05-10T00:34:27.091Z,42.98
2019-05-10T00:36:55.576Z,35.35
2019-05-10T00:39:24.057Z,36.88
2019-05-10T00:41:52.549Z,37.80
2019-05-10T00:44:21.028Z,39.35
2019-05-10T00:46:49.514Z,39.25
2019-05-10T00:49:17.992Z,43.60
2019-05-10T00:51:46.483Z,41.20
2019-05-10T00:54:14.957Z,44.45
2019-05-10T00:56:43.443Z,42.95
2019-05-10T00:59:11.925Z,45.35
2019-05-10T01:01:40.427Z,42.50
2019-05-10T01:04:08.903Z,42.53
2019-05-10T01:06:37.423Z,38.20
2019-05-10T01:09:06.478Z,42.55
2019-05-10T01:11:34.963Z,40.25
2019-05-10T01:14:03.447Z,43.87
2019-05-10T01:16:31.944Z,42.23
2019-05-10T01:19:00.431Z,41.45
2019-05-10T01:21:28.951Z,46.70
2019-05-10T01:23:57.408Z,50.33
2019-05-10T01:26:25.888Z,55.40
2019-05-10T01:28:54.365Z,51.63
2019-05-10T01:31:22.852Z,51.28
2019-05-10T01:33:51.332Z,49.10
2019-05-10T01:36:20.670Z,44.20
2019-05-10T01:38:49.146Z,46.77
2019-05-10T01:41:17.640Z,46.95
2019-05-10T01:43:46.133Z,43.55
2019-05-10T01:46:14.617Z,44.40
2019-05-10T01:48:43.105Z,43.13
2019-05-10T01:51:11.585Z,48.58
2019-05-10T01:53:40.080Z,48.65
2019-05-10T01:56:08.550Z,50.78
2019-05-10T01:58:37.039Z,49.00
2019-05-10T02:01:05.524Z,43.15
2019-05-10T02:03:34.011Z,48.95
2019-05-10T02:06:02.495Z,48.87
2019-05-10T02:08:30.986Z,48.73
2019-05-10T02:10:59.464Z,46.50
2019-05-10T02:13:27.943Z,42.95
2019-05-10T02:15:56.438Z,40.60
2019-05-10T02:18:24.919Z,35.63
2019-05-10T02:20:53.414Z,37.80
2019-05-10T02:23:21.889Z,38.48
2019-05-10T02:25:50.428Z,36.25
2019-05-10T02:28:18.935Z,37.10
2019-05-10T02:30:47.418Z,39.15
2019-05-10T02:33:15.909Z,41.15
2019-05-10T02:35:44.394Z,35.73
2019-05-10T02:38:12.883Z,36.83
2019-05-10T02:40:41.360Z,33.63
2019-05-10T02:43:09.852Z,35.03
2019-05-10T02:45:38.347Z,35.55
2019-05-10T02:48:06.834Z,38.23
2019-05-10T02:50:35.331Z,36.38
2019-05-10T02:53:03.821Z,36.77
2019-05-10T02:55:32.299Z,38.88
2019-05-10T02:58:00.800Z,37.03
2019-05-10T03:00:29.272Z,34.55
2019-05-10T03:02:57.754Z,38.33
2019-05-10T03:05:27.934Z,38.80
2019-05-10T03:07:56.928Z,38.15
2019-05-10T03:10:25.425Z,39.35
2019-05-10T03:12:53.916Z,38.88
2019-05-10T03:15:22.401Z,40.15
2019-05-10T03:17:50.904Z,39.75
2019-05-10T03:20:19.723Z,39.88
2019-05-10T03:22:48.185Z,65.50
2019-05-10T03:25:16.652Z,47.33
2019-05-10T03:27:45.149Z,40.08
2019-05-10T03:30:13.687Z,38.95
2019-05-10T03:32:42.490Z,39.15
2019-05-10T03:35:11.157Z,39.03
2019-05-10T03:37:39.629Z,38.85
2019-05-10T03:40:08.493Z,36.08
2019-05-10T03:42:36.971Z,35.03
2019-05-10T03:45:08.290Z,34.60
2019-05-10T03:47:36.815Z,38.40
2019-05-10T03:50:06.839Z,35.17
2019-05-10T03:52:35.340Z,35.52
2019-05-10T03:55:04.431Z,32.85
2019-05-10T03:57:32.977Z,36.95
2019-05-10T04:00:01.445Z,47.62
2019-05-10T04:02:29.936Z,46.80
2019-05-10T04:04:58.417Z,43.98
2019-05-10T04:07:26.929Z,35.10
2019-05-10T04:09:55.390Z,32.10
2019-05-10T04:12:23.867Z,32.70
2019-05-10T04:14:52.355Z,31.65
2019-05-10T04:17:20.849Z,31.50
2019-05-10T04:19:49.497Z,29.95
2019-05-10T04:22:17.978Z,32.60
2019-05-10T04:24:46.454Z,38.50
2019-05-10T04:27:30.723Z,35.88
2019-05-10T04:29:45.160Z,31.90
2019-05-10T04:32:13.641Z,34.95
2019-05-10T04:34:42.123Z,33.10
2019-05-10T04:37:10.605Z,32.23
2019-05-10T04:39:39.090Z,33.42
2019-05-10T04:42:07.589Z,33.18
2019-05-10T04:44:36.069Z,36.80
2019-05-10T04:47:04.560Z,44.77
2019-05-10T04:49:33.043Z,41.23
2019-05-10T04:52:01.531Z,38.63
2019-05-10T04:54:30.044Z,36.10
2019-05-10T04:57:00.197Z,31.55
2019-05-10T04:59:28.794Z,26.62
2019-05-10T05:01:57.296Z,21.70
2019-05-10T05:04:25.790Z,81.67
2019-05-10T05:06:54.273Z,75.32
2019-05-10T05:09:22.845Z,57.45
2019-05-10T05:11:51.343Z,58.28
2019-05-10T05:14:19.846Z,26.07
2019-05-10T05:16:48.325Z,18.20
2019-05-10T05:19:16.833Z,16.97
2019-05-10T05:21:45.293Z,11.68
2019-05-10T05:24:16.926Z,11.08
2019-05-10T05:26:43.987Z,8.88
2019-05-10T05:29:12.471Z,8.23
2019-05-10T05:31:40.966Z,7.65
2019-05-10T05:34:09.427Z,6.22
2019-05-10T05:36:37.908Z,9.00
2019-05-10T05:39:07.581Z,7.60
2019-05-10T05:41:48.285Z,5.40
2019-05-10T05:44:06.252Z,7.30
2019-05-10T05:46:34.718Z,5.97
2019-05-10T05:49:03.210Z,5.67
2019-05-10T05:51:31.675Z,7.80
2019-05-10T05:54:03.748Z,5.40
2019-05-10T05:56:30.362Z,5.80
2019-05-10T05:58:58.841Z,3.90
2019-05-10T06:01:29.539Z,3.12
2019-05-10T06:04:00.124Z,2.47
2019-05-10T06:06:27.734Z,10.75
2019-05-10T06:08:59.673Z,7.65
2019-05-10T06:11:29.722Z,2.72
2019-05-10T06:13:56.623Z,4.10
2019-05-10T06:16:25.102Z,1.90
2019-05-10T06:18:53.653Z,2.00
2019-05-10T06:21:25.148Z,2.62
2019-05-10T06:23:52.319Z,5.70
2019-05-10T06:26:28.142Z,4.15
2019-05-10T06:29:03.793Z,4.58
2019-05-10T06:31:21.256Z,2.80
2019-05-10T06:33:49.753Z,3.10
2019-05-10T06:36:18.234Z,2.17
2019-05-10T06:38:46.718Z,4.72
2019-05-10T06:41:16.900Z,7.15
2019-05-10T06:43:50.581Z,7.30
2019-05-10T06:46:15.651Z,7.83
2019-05-10T06:48:44.113Z,3.35
2019-05-10T06:51:12.587Z,5.05
2019-05-10T06:53:42.234Z,7.30
2019-05-10T06:56:11.314Z,8.50
2019-05-10T06:58:39.842Z,9.58
2019-05-10T07:01:08.317Z,6.00
2019-05-10T07:03:36.799Z,3.60
2019-05-10T07:06:05.283Z,13.13
2019-05-10T07:08:43.777Z,11.50
2019-05-10T07:11:03.975Z,19.37
2019-05-10T07:13:32.458Z,28.85
2019-05-10T07:16:00.939Z,18.48
2019-05-10T07:18:29.417Z,21.57
2019-05-10T07:21:00.815Z,41.28
2019-05-10T07:23:30.267Z,24.72
2019-05-10T07:25:58.302Z,35.55
2019-05-10T07:28:26.792Z,39.75
2019-05-10T07:30:55.262Z,28.90
2019-05-10T07:33:23.743Z,36.58
2019-05-10T07:35:52.228Z,40.38
2019-05-10T07:38:23.701Z,34.92
2019-05-10T07:40:50.935Z,24.00
2019-05-10T07:43:26.443Z,29.57
2019-05-10T07:45:49.676Z,40.88
2019-05-10T07:48:18.125Z,34.98
2019-05-10T07:50:49.147Z,29.82
2019-05-10T07:53:22.737Z,28.55
2019-05-10T07:55:47.018Z,23.95
2019-05-10T07:58:15.489Z,37.53
2019-05-10T08:00:46.500Z,43.87
2019-05-10T08:03:17.615Z,24.52
2019-05-10T08:05:46.436Z,58.63
2019-05-10T08:08:14.881Z,35.20
2019-05-10T08:10:43.357Z,71.95
2019-05-10T08:13:15.371Z,38.02
2019-05-10T08:15:42.048Z,31.90
2019-05-10T08:18:10.524Z,35.92
2019-05-10T08:20:49.269Z,30.68
2019-05-10T08:23:09.212Z,32.88
2019-05-10T08:25:44.319Z,24.57
2019-05-10T08:28:07.895Z,40.63
2019-05-10T08:30:50.811Z,23.67
2019-05-10T08:33:14.576Z,26.02
2019-05-10T08:35:45.592Z,20.00
2019-05-10T08:38:12.923Z,19.00
2019-05-10T08:40:42.861Z,33.25
2019-05-10T08:43:16.101Z,19.32
2019-05-10T08:45:44.903Z,21.73
2019-05-10T08:48:12.770Z,17.77
2019-05-10T08:50:53.099Z,16.57
2019-05-10T08:53:16.328Z,16.48
2019-05-10T08:55:43.260Z,15.32
2019-05-10T08:58:12.487Z,31.12
2019-05-10T09:00:53.836Z,17.75
2019-05-10T09:03:18.128Z,21.55
2019-05-10T09:05:43.255Z,11.22
2019-05-10T09:08:19.575Z,55.80
2019-05-10T09:10:42.218Z,20.75
2019-05-10T09:13:12.834Z,46.00
2019-05-10T09:15:51.211Z,22.90
2019-05-10T09:18:12.799Z,14.10
2019-05-10T09:20:42.267Z,12.00
2019-05-10T09:23:15.372Z,19.67
2019-05-10T09:25:42.664Z,19.67
2019-05-10T09:28:16.430Z,18.00
2019-05-10T09:30:56.505Z,21.75
2019-05-10T09:33:14.421Z,13.88
2019-05-10T09:35:47.123Z,16.55
2019-05-10T09:38:12.699Z,12.80
2019-05-10T09:40:50.697Z,11.63
2019-05-10T09:43:14.399Z,8.20
2019-05-10T09:45:42.398Z,7.97
2019-05-10T09:48:12.075Z,8.75
2019-05-10T09:50:46.530Z,6.92
2019-05-10T09:53:13.523Z,7.65
2019-05-10T09:55:45.449Z,8.78
2019-05-10T09:58:11.484Z,14.30
2019-05-10T10:00:39.960Z,7.17
2019-05-10T10:03:08.569Z,5.78
2019-05-10T10:05:39.802Z,6.28
2019-05-10T10:08:09.265Z,5.72
2019-05-10T10:10:37.479Z,5.58
2019-05-10T10:13:11.798Z,4.90
2019-05-10T10:15:37.330Z,5.28
2019-05-10T10:18:05.917Z,4.80
2019-05-10T10:20:35.941Z,5.05
2019-05-10T10:23:07.358Z,6.17
2019-05-10T10:25:40.487Z,7.65
2019-05-10T10:28:08.347Z,6.22
2019-05-10T10:30:37.300Z,5.30
2019-05-10T10:33:11.254Z,5.05
2019-05-10T10:35:37.881Z,4.87
2019-05-10T10:38:08.067Z,5.25
2019-05-10T10:40:44.312Z,4.50
2019-05-10T10:43:07.539Z,4.42
2019-05-10T10:45:37.651Z,5.60
2019-05-10T10:48:10.652Z,5.00
2019-05-10T10:50:36.633Z,3.92
2019-05-10T10:53:07.771Z,3.72
2019-05-10T10:55:39.398Z,4.10
2019-05-10T10:58:07.346Z,3.47
2019-05-10T11:00:38.781Z,2.67
2019-05-10T11:03:06.353Z,3.80
2019-05-10T11:05:34.841Z,3.50
2019-05-10T11:08:03.314Z,3.60
2019-05-10T11:10:31.997Z,3.77
2019-05-10T11:13:02.867Z,6.45
2019-05-10T11:15:35.829Z,24.72
2019-05-10T11:18:01.110Z,8.50
2019-05-10T11:20:31.800Z,6.72
2019-05-10T11:22:59.782Z,6.40
2019-05-10T11:25:28.302Z,6.60
2019-05-10T11:27:58.701Z,6.08
2019-05-10T11:30:26.989Z,7.72
2019-05-10T11:32:55.463Z,5.35
2019-05-10T11:35:30.309Z,5.75
2019-05-10T11:37:54.155Z,5.00
2019-05-10T11:40:30.280Z,4.35
2019-05-10T11:42:52.836Z,4.75
2019-05-10T11:45:26.150Z,4.05
2019-05-10T11:47:54.446Z,2.80
2019-05-10T11:50:31.530Z,3.30
2019-05-10T11:52:51.945Z,3.40
2019-05-10T11:55:21.589Z,3.47
2019-05-10T11:58:01.991Z,4.03
2019-05-10T12:00:28.402Z,4.75
2019-05-10T12:05:26.325Z,2.10
2019-05-10T12:07:54.558Z,1.62
2019-05-10T12:13:06.524Z,2.87
2019-05-10T12:15:25.342Z,2.27
2019-05-10T12:17:58.037Z,1.50
2019-05-10T12:20:26.905Z,1.95
2019-05-10T12:22:52.520Z,3.60
2019-05-10T12:25:41.575Z,2.10
2019-05-10T12:26:58.952Z,1.62
2019-05-10T12:27:52.318Z,2.47
2019-05-10T12:30:21.659Z,1.80
2019-05-10T12:33:05.936Z,1.40
2019-05-10T12:35:21.259Z,1.80
2019-05-10T12:37:54.134Z,1.42
2019-05-10T12:40:23.840Z,2.95
2019-05-10T12:42:50.376Z,1.92
2019-05-10T12:45:22.876Z,2.55
2019-05-10T12:47:51.431Z,1.47
2019-05-10T12:50:19.261Z,1.30
2019-05-10T12:52:50.418Z,2.70
2019-05-10T12:55:17.934Z,2.80
2019-05-10T12:57:46.404Z,4.30
2019-05-10T13:00:15.993Z,8.83
2019-05-10T13:02:50.904Z,3.50
2019-05-10T13:05:15.792Z,2.85
2019-05-10T13:07:44.631Z,2.05
2019-05-10T13:10:13.180Z,2.30
2019-05-10T13:12:44.164Z,1.70
2019-05-10T13:15:11.841Z,1.20
2019-05-10T13:17:44.118Z,1.55
2019-05-10T13:20:10.533Z,2.58
2019-05-10T13:22:39.479Z,2.40
2019-05-10T13:25:08.160Z,2.35
2019-05-10T13:27:36.757Z,2.42
2019-05-10T13:30:06.285Z,2.10
2019-05-10T13:32:34.761Z,1.85
2019-05-10T13:35:03.228Z,1.70
2019-05-10T13:37:31.724Z,2.67
2019-05-10T13:40:05.253Z,3.50
2019-05-10T13:42:30.397Z,2.22
2019-05-10T13:44:58.866Z,1.80
2019-05-10T13:47:27.348Z,1.80
2019-05-10T13:49:55.811Z,3.40
2019-05-10T13:52:29.707Z,1.55
2019-05-10T13:54:56.061Z,2.20
2019-05-10T13:57:24.551Z,2.60
2019-05-10T13:59:55.234Z,2.80
2019-05-10T14:02:32.437Z,2.58
2019-05-10T14:04:53.424Z,1.60
2019-05-10T14:07:21.914Z,2.65
2019-05-10T14:09:50.397Z,13.53
2019-05-10T14:12:23.073Z,2.17
2019-05-10T14:14:49.090Z,6.50
2019-05-10T14:17:17.578Z,5.47
2019-05-10T14:19:46.069Z,5.28
2019-05-10T14:22:14.540Z,3.35
2019-05-10T14:24:46.687Z,2.80
2019-05-10T14:27:13.230Z,7.30
2019-05-10T14:29:41.712Z,4.17
2019-05-10T14:32:10.188Z,4.22
2019-05-10T14:34:44.124Z,3.52
2019-05-10T14:37:14.285Z,10.63
2019-05-10T14:39:39.093Z,3.92
2019-05-10T14:42:09.375Z,4.00
2019-05-10T14:44:38.609Z,4.40
2019-05-10T14:47:10.842Z,4.22
2019-05-10T14:49:42.050Z,5.80
2019-05-10T14:52:08.645Z,7.15
2019-05-10T14:54:43.677Z,5.50
2019-05-10T14:57:07.402Z,7.28
2019-05-10T14:59:35.911Z,5.33
2019-05-10T15:02:04.593Z,5.03
2019-05-10T15:04:48.420Z,4.78
2019-05-10T15:07:03.281Z,8.78
2019-05-10T15:09:31.807Z,9.73
2019-05-10T15:12:00.276Z,8.20
2019-05-10T15:14:28.752Z,5.53
2019-05-10T15:16:57.242Z,4.17
2019-05-10T15:19:28.766Z,4.47
2019-05-10T15:21:55.932Z,4.53
2019-05-10T15:24:24.408Z,2.75
2019-05-10T15:26:52.891Z,3.67
2019-05-10T15:29:24.637Z,4.12
2019-05-10T15:31:51.585Z,3.40
2019-05-10T15:34:20.057Z,4.22
2019-05-10T15:36:48.530Z,3.42
2019-05-10T15:39:17.003Z,3.55
2019-05-10T15:41:45.482Z,3.02
2019-05-10T15:44:13.960Z,2.35
2019-05-10T15:46:42.676Z,2.25
2019-05-10T15:49:13.437Z,1.95
2019-05-10T15:51:41.392Z,2.00
2019-05-10T15:54:09.897Z,5.00
2019-05-10T15:56:41.605Z,2.15
2019-05-10T15:59:12.593Z,2.20
2019-05-10T16:01:38.819Z,3.62
2019-05-10T16:04:07.294Z,3.15
2019-05-10T16:06:37.805Z,2.70
2019-05-10T16:09:17.106Z,2.25
2019-05-10T16:11:37.671Z,2.90
2019-05-10T16:14:06.148Z,4.08
2019-05-10T16:16:37.148Z,3.75
2019-05-10T16:19:04.827Z,3.02
2019-05-10T16:21:33.297Z,3.35
2019-05-10T16:24:01.775Z,3.12
2019-05-10T16:26:30.242Z,2.90
2019-05-10T16:29:02.369Z,3.02
2019-05-10T16:31:28.924Z,3.50
2019-05-10T16:33:57.410Z,2.50
2019-05-10T16:36:28.374Z,3.67
2019-05-10T16:38:56.098Z,3.50
2019-05-10T16:41:26.899Z,3.30
2019-05-10T16:43:58.343Z,3.17
2019-05-10T16:46:24.980Z,4.45
2019-05-10T16:48:53.457Z,7.10
2019-05-10T16:51:21.935Z,7.55
2019-05-10T16:53:50.416Z,3.33
2019-05-10T16:56:21.101Z,2.52
2019-05-10T16:58:53.143Z,2.50
2019-05-10T17:01:25.360Z,2.50
2019-05-10T17:03:51.109Z,3.92
2019-05-10T17:06:19.696Z,3.30
2019-05-10T17:08:48.180Z,4.12
2019-05-10T17:11:16.653Z,3.25
2019-05-10T17:13:45.135Z,4.72
2019-05-10T17:16:17.153Z,6.08
2019-05-10T17:18:43.815Z,3.52
2019-05-10T17:21:12.297Z,5.58
2019-05-10T17:23:41.465Z,8.35
2019-05-10T17:26:11.000Z,51.83
2019-05-10T17:28:39.486Z,11.18
2019-05-10T17:31:09.581Z,9.83
2019-05-10T17:33:42.786Z,4.62
2019-05-10T17:36:08.986Z,4.95
2019-05-10T17:38:37.694Z,4.95
2019-05-10T17:41:06.182Z,4.65
2019-05-10T17:43:34.674Z,3.72
2019-05-10T17:46:04.800Z,3.27
2019-05-10T17:48:33.294Z,4.60
2019-05-10T17:51:01.800Z,3.27
2019-05-10T17:53:30.330Z,2.72
2019-05-10T17:56:02.683Z,4.62
2019-05-10T17:58:33.650Z,4.12
2019-05-10T18:00:59.219Z,2.42
2019-05-10T18:03:27.703Z,5.05
2019-05-10T18:05:56.186Z,5.28
2019-05-10T18:08:24.665Z,4.10
2019-05-10T18:10:57.436Z,3.87
2019-05-10T18:13:24.976Z,3.60
2019-05-10T18:15:53.452Z,3.10
2019-05-10T18:18:21.920Z,3.35
2019-05-10T18:20:51.988Z,3.65
2019-05-10T18:23:22.646Z,2.92
2019-05-10T18:25:52.435Z,4.78
2019-05-10T18:28:21.666Z,5.08
2019-05-10T18:30:50.440Z,5.67
2019-05-10T18:33:18.982Z,5.00
2019-05-10T18:35:52.563Z,5.60
2019-05-10T18:38:17.773Z,5.35
2019-05-10T18:40:46.271Z,3.85
2019-05-10T18:43:14.740Z,6.15
2019-05-10T18:45:43.267Z,4.25
2019-05-10T18:48:11.731Z,4.03
2019-05-10T18:50:45.122Z,6.28
2019-05-10T18:53:10.421Z,5.53
2019-05-10T18:55:38.899Z,6.03
2019-05-10T18:58:07.381Z,4.95
2019-05-10T19:00:35.854Z,5.08
2019-05-10T19:03:04.336Z,4.95
2019-05-10T19:05:33.205Z,4.58
2019-05-10T19:08:05.408Z,3.08
2019-05-10T19:10:31.949Z,2.60
2019-05-10T19:13:03.920Z,2.92
2019-05-10T19:15:30.621Z,3.22
2019-05-10T19:17:59.098Z,1.80
2019-05-10T19:20:27.571Z,3.42
2019-05-10T19:22:56.062Z,2.90
2019-05-10T19:25:24.553Z,2.33
2019-05-10T19:27:53.010Z,2.00
2019-05-10T19:30:22.454Z,2.67
2019-05-10T19:32:56.109Z,3.45
2019-05-10T19:35:21.349Z,7.10
2019-05-10T19:37:49.843Z,7.45
2019-05-10T19:40:19.212Z,5.62
2019-05-10T19:42:49.587Z,5.65
2019-05-10T19:45:20.822Z,4.40
2019-05-10T19:47:49.839Z,6.10
2019-05-10T19:50:18.305Z,4.72
2019-05-10T19:52:46.784Z,3.40
2019-05-10T19:55:19.512Z,3.27
2019-05-10T19:57:49.555Z,3.62
2019-05-10T20:00:15.666Z,2.35
2019-05-10T20:02:44.150Z,1.67
2019-05-10T20:05:12.621Z,1.82
2019-05-10T20:07:46.015Z,1.80
2019-05-10T20:10:11.287Z,3.47
2019-05-10T20:12:39.782Z,2.55
2019-05-10T20:15:08.253Z,1.77
2019-05-10T20:17:37.223Z,1.40
2019-05-10T20:20:09.149Z,1.12
2019-05-10T20:22:37.732Z,1.30
2019-05-10T20:25:07.845Z,1.10
2019-05-10T20:27:36.314Z,1.15
2019-05-10T20:30:05.496Z,1.15
2019-05-10T20:32:33.974Z,1.47
2019-05-10T20:35:02.444Z,1.22
2019-05-10T20:37:30.917Z,1.82
2019-05-10T20:39:59.428Z,1.47
2019-05-10T20:42:27.878Z,1.00
2019-05-10T20:45:06.924Z,1.27
2019-05-10T20:47:26.656Z,1.32
2019-05-10T20:49:55.132Z,1.55
2019-05-10T20:52:23.617Z,1.40
2019-05-10T20:54:52.087Z,1.10
2019-05-10T20:57:20.550Z,0.88
2019-05-10T20:59:49.030Z,1.10
2019-05-10T21:02:17.508Z,1.07
2019-05-10T21:04:45.997Z,1.10
2019-05-10T21:07:14.472Z,1.55
2019-05-10T21:09:42.936Z,0.90
2019-05-10T21:12:11.427Z,0.90
2019-05-10T21:14:39.898Z,1.10
2019-05-10T21:17:08.400Z,1.07
2019-05-10T21:19:36.849Z,1.00
2019-05-10T21:22:05.333Z,1.10
2019-05-10T21:24:33.806Z,1.15
2019-05-10T21:27:02.279Z,1.25
2019-05-10T21:29:30.754Z,1.45
2019-05-10T21:31:59.281Z,1.35
2019-05-10T21:34:27.752Z,1.22
2019-05-10T21:36:56.233Z,1.30
2019-05-10T21:39:24.711Z,1.15
2019-05-10T21:41:53.187Z,1.30
2019-05-10T21:44:21.662Z,1.10
2019-05-10T21:46:53.375Z,1.15
2019-05-10T21:49:20.341Z,1.05
2019-05-10T21:51:48.819Z,0.90
2019-05-10T21:54:17.300Z,0.88
2019-05-10T21:56:45.789Z,0.90
2019-05-10T21:59:14.293Z,1.10
2019-05-10T22:01:42.748Z,1.00
2019-05-10T22:04:11.231Z,0.93
2019-05-10T22:06:39.710Z,1.00
2019-05-10T22:09:09.264Z,1.30
2019-05-10T22:11:37.783Z,1.07
2019-05-10T22:14:06.268Z,1.00
2019-05-10T22:16:34.768Z,1.00
2019-05-10T22:19:03.248Z,0.80
2019-05-10T22:21:31.712Z,1.30
2019-05-10T22:24:00.189Z,0.95
2019-05-10T22:26:28.658Z,1.20
2019-05-10T22:28:57.142Z,1.40
2019-05-10T22:31:25.615Z,1.20
2019-05-10T22:33:54.103Z,1.20
2019-05-10T22:36:22.588Z,1.20
2019-05-10T22:39:05.759Z,1.10
2019-05-10T22:41:21.282Z,1.52
2019-05-10T22:43:49.747Z,2.25
2019-05-10T22:46:18.228Z,1.50
2019-05-10T22:48:46.716Z,1.50
2019-05-10T22:51:15.174Z,1.20
2019-05-10T22:53:43.652Z,1.27
2019-05-10T22:56:12.139Z,2.02
2019-05-10T22:58:40.616Z,3.40
2019-05-10T23:01:09.102Z,2.72
2019-05-10T23:03:37.600Z,1.92
2019-05-10T23:06:06.064Z,1.47
2019-05-10T23:08:34.540Z,1.50
2019-05-10T23:11:03.017Z,1.20
2019-05-10T23:13:31.492Z,1.00
2019-05-10T23:15:59.976Z,1.07
2019-05-10T23:18:28.451Z,1.00
2019-05-10T23:20:56.943Z,0.90
2019-05-10T23:23:25.425Z,1.00
2019-05-10T23:25:53.907Z,0.82
2019-05-10T23:28:22.377Z,0.85
2019-05-10T23:30:50.936Z,1.17
2019-05-10T23:33:19.596Z,1.07
2019-05-10T23:35:48.182Z,0.93
2019-05-10T23:38:16.769Z,0.93
2019-05-10T23:40:45.357Z,1.00
2019-05-10T23:43:13.947Z,1.20
2019-05-10T23:45:42.531Z,0.95
2019-05-10T23:48:11.122Z,1.30
2019-05-10T23:50:39.709Z,1.42
2019-05-10T23:53:08.297Z,1.52
2019-05-10T23:55:36.925Z,1.25
2019-05-10T23:58:05.471Z,1.42
